Time;durP1;ratioP1;P1;durP2;ratioP2;P2;SDS_P1;SDS_P2;PMS_P1;PMS_P2;Temp;Humidity;BMP_temperature;BMP_pressure;BME280_temperature;BME280_humidity;BME280_pressure;Samples;Min_cycle;Max_cycle;Signal;HPM_P1;HPM_P2
2022/03/06 00:01:38;;;;;;;26.92;10.73;;;3.30;61.10;;;;;;9176384;19;20018;-59
2022/03/06 00:04:45;;;;;;;19.25;10.48;;;3.30;61.20;;;;;;9175977;19;20473;-61
2022/03/06 00:07:50;;;;;;;22.63;10.60;;;3.30;61.20;;;;;;9175286;19;20038;-59
2022/03/06 00:10:59;;;;;;;20.92;10.10;;;3.20;61.10;;;;;;9176347;19;20014;-61
2022/03/06 00:14:04;;;;;;;24.02;10.93;;;3.20;61.20;;;;;;9176356;19;20025;-62
2022/03/06 00:17:09;;;;;;;20.23;10.35;;;3.20;61.20;;;;;;9176301;19;20017;-60
2022/03/06 00:20:15;;;;;;;21.70;10.07;;;3.20;61.20;;;;;;9171476;19;20018;-59
2022/03/06 00:23:20;;;;;;;20.10;10.32;;;3.20;61.30;;;;;;9163123;19;20027;-59
2022/03/06 00:26:28;;;;;;;21.45;11.68;;;3.10;61.30;;;;;;9174098;19;20030;-60
2022/03/06 00:29:33;;;;;;;19.20;10.38;;;3.10;61.30;;;;;;9170030;19;20014;-61
2022/03/06 00:32:38;;;;;;;21.27;11.00;;;3.10;61.30;;;;;;9174254;19;20026;-61
2022/03/06 00:35:43;;;;;;;20.58;10.93;;;3.10;61.30;;;;;;9175399;19;20349;-59
2022/03/06 00:38:49;;;;;;;18.15;10.13;;;3.10;61.40;;;;;;9173145;19;20023;-59
2022/03/06 00:41:56;;;;;;;17.42;10.80;;;3.00;61.30;;;;;;9172807;19;20051;-59
2022/03/06 00:45:02;;;;;;;22.80;11.00;;;3.00;61.40;;;;;;9171870;19;20021;-61
2022/03/06 00:48:07;;;;;;;21.10;10.73;;;3.00;61.40;;;;;;9172390;19;20471;-60
2022/03/06 00:51:14;;;;;;;21.08;10.88;;;3.00;61.40;;;;;;9174070;19;20359;-59
2022/03/06 00:54:19;;;;;;;19.20;9.38;;;2.90;61.40;;;;;;9172685;19;20370;-60
2022/03/06 00:57:27;;;;;;;21.52;10.70;;;3.00;61.60;;;;;;9174799;19;20598;-59
2022/03/06 01:00:34;;;;;;;21.60;10.25;;;3.00;61.50;;;;;;9174036;19;20025;-64
2022/03/06 01:03:40;;;;;;;17.75;10.30;;;2.90;61.50;;;;;;9174155;19;20467;-60
2022/03/06 01:06:46;;;;;;;20.17;10.55;;;2.90;61.50;;;;;;9176835;19;20019;-61
2022/03/06 01:09:51;;;;;;;18.58;10.38;;;2.90;61.50;;;;;;9175905;19;20056;-60
2022/03/06 01:13:00;;;;;;;17.60;9.70;;;2.80;61.50;;;;;;9173439;19;20019;-60
2022/03/06 01:16:05;;;;;;;21.02;10.55;;;2.80;61.50;;;;;;9181754;19;20474;-60
2022/03/06 01:19:10;;;;;;;21.10;10.82;;;2.80;61.50;;;;;;9178655;19;20015;-59
2022/03/06 01:22:15;;;;;;;18.30;10.15;;;2.70;61.50;;;;;;9183294;19;20014;-62
2022/03/06 01:25:20;;;;;;;20.08;11.18;;;2.70;61.60;;;;;;9178582;19;20506;-60
2022/03/06 01:28:28;;;;;;;18.08;10.05;;;2.70;61.60;;;;;;9175340;19;20033;-60
2022/03/06 01:31:33;;;;;;;16.38;9.15;;;2.70;61.70;;;;;;9180492;19;20024;-60
2022/03/06 01:34:38;;;;;;;23.15;10.75;;;2.70;61.70;;;;;;9175310;19;20368;-59
2022/03/06 01:37:43;;;;;;;23.98;11.00;;;2.70;61.70;;;;;;9179995;19;20764;-59
2022/03/06 01:40:48;;;;;;;19.98;10.48;;;2.60;61.70;;;;;;9183377;19;20026;-59
2022/03/06 01:43:56;;;;;;;17.90;10.55;;;2.60;61.70;;;;;;9180855;19;20018;-61
2022/03/06 01:47:01;;;;;;;21.58;10.48;;;2.70;61.70;;;;;;9177842;19;20018;-60
2022/03/06 01:50:08;;;;;;;18.90;10.35;;;2.60;61.70;;;;;;9176820;19;20019;-60
2022/03/06 01:53:14;;;;;;;19.10;10.50;;;2.60;61.80;;;;;;9177875;19;20022;-58
2022/03/06 01:56:19;;;;;;;17.02;10.07;;;2.60;61.80;;;;;;9179401;19;20022;-62
2022/03/06 01:59:29;;;;;;;18.35;10.43;;;2.50;61.80;;;;;;9180775;19;20025;-61
2022/03/06 02:02:35;;;;;;;18.50;10.32;;;2.50;61.80;;;;;;9179388;19;20348;-59
2022/03/06 02:05:41;;;;;;;20.30;10.80;;;2.50;61.80;;;;;;9179582;19;20018;-62
2022/03/06 02:08:46;;;;;;;20.73;11.75;;;2.50;61.80;;;;;;9177507;19;20025;-60
2022/03/06 02:15:14;;;;;;;21.50;10.60;;;2.40;61.90;;;;;;9179031;19;20019;-60
2022/03/06 02:18:19;;;;;;;20.67;11.73;;;2.40;61.90;;;;;;9179133;19;20029;-63
2022/03/06 02:21:27;;;;;;;22.00;11.25;;;2.40;61.90;;;;;;9180925;19;20011;-58
2022/03/06 02:24:32;;;;;;;27.27;12.32;;;2.40;62.00;;;;;;9181516;19;20025;-59
2022/03/06 02:27:37;;;;;;;26.40;11.75;;;2.40;62.00;;;;;;9174197;19;20471;-61
2022/03/06 02:30:44;;;;;;;20.55;11.88;;;2.40;62.00;;;;;;9177126;19;20018;-60
2022/03/06 02:33:49;;;;;;;20.08;10.52;;;2.30;62.00;;;;;;9177516;19;20022;-61
2022/03/06 02:36:57;;;;;;;21.67;11.20;;;2.30;62.00;;;;;;9178501;19;20109;-62
2022/03/06 02:40:02;;;;;;;19.98;11.73;;;2.30;62.00;;;;;;9179166;19;20026;-60
2022/03/06 02:43:08;;;;;;;21.92;11.40;;;2.30;62.00;;;;;;9179925;19;20006;-60
2022/03/06 02:46:13;;;;;;;21.50;10.43;;;2.30;62.20;;;;;;9176053;19;20030;-59
2022/03/06 02:49:20;;;;;;;20.73;11.25;;;2.20;62.10;;;;;;9176811;19;20022;-59
2022/03/06 02:52:28;;;;;;;19.52;10.75;;;2.20;62.10;;;;;;9179820;19;20023;-58
2022/03/06 02:55:33;;;;;;;19.05;11.20;;;2.20;62.20;;;;;;9178406;19;20051;-60
2022/03/06 02:58:39;;;;;;;20.02;10.68;;;2.20;62.20;;;;;;9177620;19;20052;-59
2022/03/06 03:01:45;;;;;;;25.95;11.93;;;2.20;62.20;;;;;;9174893;19;20018;-60
2022/03/06 03:04:50;;;;;;;25.88;11.35;;;2.20;62.30;;;;;;9175667;19;20022;-59
2022/03/06 03:07:58;;;;;;;17.15;10.65;;;2.20;62.30;;;;;;9177129;19;20029;-60
2022/03/06 03:11:03;;;;;;;19.90;10.73;;;2.20;62.40;;;;;;9179301;19;20653;-59
2022/03/06 03:14:08;;;;;;;24.25;11.25;;;2.20;62.40;;;;;;9176467;19;20014;-61
2022/03/06 03:17:13;;;;;;;20.95;11.00;;;2.20;63.10;;;;;;9180214;19;20015;-59
2022/03/06 03:20:19;;;;;;;19.70;10.93;;;2.20;62.40;;;;;;9177286;19;20014;-60
2022/03/06 03:23:27;;;;;;;19.27;10.68;;;2.20;62.50;;;;;;9177252;19;20025;-59
2022/03/06 03:26:32;;;;;;;20.73;10.63;;;2.20;62.60;;;;;;9177329;19;20022;-59
2022/03/06 03:29:38;;;;;;;25.63;11.35;;;2.20;62.60;;;;;;9170025;19;20014;-59
2022/03/06 03:32:43;;;;;;;24.17;10.90;;;2.20;62.60;;;;;;9178034;19;20014;-59
2022/03/06 03:35:48;;;;;;;21.77;10.75;;;2.20;62.60;;;;;;9178883;19;20030;-61
2022/03/06 03:38:55;;;;;;;25.85;10.88;;;2.20;62.60;;;;;;9178236;19;20022;-60
2022/03/06 03:42:00;;;;;;;21.17;10.82;;;2.20;62.70;;;;;;9177301;19;20471;-61
2022/03/06 03:45:06;;;;;;;24.83;11.57;;;2.30;62.70;;;;;;9174706;19;20508;-61
2022/03/06 03:48:11;;;;;;;20.08;10.80;;;2.30;63.30;;;;;;9177187;19;20015;-61
2022/03/06 03:51:17;;;;;;;23.60;10.90;;;2.30;62.70;;;;;;9174921;19;20056;-62
2022/03/06 03:54:24;;;;;;;20.17;11.18;;;2.30;62.70;;;;;;9177974;19;20407;-61
2022/03/06 03:57:29;;;;;;;20.13;11.10;;;2.30;62.90;;;;;;9176351;19;20022;-63
2022/03/06 04:00:34;;;;;;;21.75;11.65;;;2.30;62.80;;;;;;9174971;19;20019;-62
2022/03/06 04:03:40;;;;;;;18.27;10.10;;;2.30;62.80;;;;;;9175795;19;20048;-61
2022/03/06 04:06:45;;;;;;;21.48;11.23;;;2.30;62.90;;;;;;9172810;19;20014;-59
2022/03/06 04:09:53;;;;;;;20.50;10.95;;;2.30;62.90;;;;;;9174965;19;20014;-60
2022/03/06 04:12:58;;;;;;;26.60;11.38;;;2.30;62.90;;;;;;9175312;19;20018;-59
2022/03/06 04:16:03;;;;;;;18.50;10.48;;;2.30;62.90;;;;;;9175632;19;20011;-61
2022/03/06 04:19:09;;;;;;;20.17;10.73;;;2.30;63.00;;;;;;9174744;19;20838;-60
2022/03/06 04:22:14;;;;;;;19.23;10.32;;;2.30;63.00;;;;;;9175417;19;20019;-59
2022/03/06 04:25:21;;;;;;;21.45;11.48;;;2.30;63.10;;;;;;9173264;19;20013;-60
2022/03/06 04:28:26;;;;;;;20.73;10.55;;;2.20;63.00;;;;;;9169658;19;20022;-58
2022/03/06 04:31:32;;;;;;;18.80;10.27;;;2.20;63.70;;;;;;9173367;19;20019;-59
2022/03/06 04:34:38;;;;;;;24.05;11.65;;;2.20;63.10;;;;;;9174428;19;20023;-60
2022/03/06 04:37:43;;;;;;;21.30;11.02;;;2.30;63.20;;;;;;9174245;19;20018;-59
2022/03/06 04:40:51;;;;;;;25.15;12.02;;;2.30;63.20;;;;;;9178835;19;20011;-59
2022/03/06 04:43:56;;;;;;;26.90;12.68;;;2.30;63.30;;;;;;9185974;19;20025;-62
2022/03/06 04:47:01;;;;;;;21.33;11.88;;;2.20;63.90;;;;;;9181079;19;20015;-62
2022/03/06 04:50:07;;;;;;;21.98;11.27;;;2.20;63.30;;;;;;9181393;19;20023;-60
2022/03/06 04:53:12;;;;;;;21.60;11.25;;;2.20;63.30;;;;;;9183428;19;20022;-61
2022/03/06 04:56:20;;;;;;;24.08;11.07;;;2.20;63.30;;;;;;9183050;19;20120;-60
2022/03/06 04:59:25;;;;;;;20.92;10.35;;;2.20;63.40;;;;;;9182036;19;20355;-59
2022/03/06 05:02:30;;;;;;;21.63;11.13;;;2.30;63.40;;;;;;9183485;19;20033;-61
2022/03/06 05:05:35;;;;;;;18.00;10.23;;;2.20;63.40;;;;;;9184524;19;20019;-59
2022/03/06 05:08:40;;;;;;;25.60;10.40;;;2.20;63.50;;;;;;9181824;19;20066;-61
2022/03/06 05:11:48;;;;;;;26.30;10.85;;;2.20;63.50;;;;;;9181346;19;20026;-60
2022/03/06 05:14:53;;;;;;;18.55;10.55;;;2.20;63.50;;;;;;9183150;19;20025;-58
2022/03/06 05:18:01;;;;;;;16.33;10.45;;;2.20;63.60;;;;;;9179646;19;20014;-61
2022/03/06 05:21:06;;;;;;;16.95;10.18;;;2.20;63.60;;;;;;9180737;19;20019;-59
2022/03/06 05:24:11;;;;;;;17.08;10.15;;;2.20;63.70;;;;;;9184019;19;20045;-60
2022/03/06 05:27:19;;;;;;;18.35;11.02;;;2.20;63.70;;;;;;9175991;19;20037;-61
2022/03/06 05:30:24;;;;;;;27.00;10.20;;;2.20;63.70;;;;;;9180960;19;20018;-59
2022/03/06 05:33:30;;;;;;;18.75;10.32;;;2.20;63.80;;;;;;9179152;19;20027;-59
2022/03/06 05:36:35;;;;;;;18.02;10.40;;;2.20;63.80;;;;;;9180691;19;20515;-60
2022/03/06 05:39:40;;;;;;;20.60;10.32;;;2.10;63.70;;;;;;9181666;19;20030;-60
2022/03/06 05:42:47;;;;;;;18.42;9.73;;;2.10;63.80;;;;;;9181716;19;20010;-60
2022/03/06 05:45:52;;;;;;;22.42;10.27;;;2.10;63.80;;;;;;9181961;19;20041;-60
2022/03/06 05:48:57;;;;;;;20.25;9.35;;;2.20;64.00;;;;;;9178317;19;20044;-58
2022/03/06 05:52:04;;;;;;;20.00;10.10;;;2.10;63.90;;;;;;9176240;19;20052;-60
2022/03/06 05:55:11;;;;;;;20.23;9.90;;;2.10;64.00;;;;;;9181020;19;20033;-61
2022/03/06 05:58:18;;;;;;;17.27;8.82;;;2.10;64.00;;;;;;9181863;19;20115;-60
2022/03/06 06:01:23;;;;;;;23.38;9.90;;;2.10;64.00;;;;;;9180540;19;20786;-59
2022/03/06 06:04:28;;;;;;;18.25;9.20;;;2.00;64.00;;;;;;9180686;19;20110;-60
2022/03/06 06:07:34;;;;;;;20.25;9.60;;;2.10;64.10;;;;;;9180322;19;20017;-61
2022/03/06 06:10:39;;;;;;;18.00;9.48;;;2.00;64.10;;;;;;9179215;19;20026;-59
2022/03/06 06:13:46;;;;;;;17.83;9.45;;;2.00;64.20;;;;;;9178011;19;20011;-60
2022/03/06 06:16:51;;;;;;;14.18;8.98;;;2.00;64.30;;;;;;9179810;19;20389;-59
2022/03/06 06:19:56;;;;;;;16.38;9.27;;;2.00;64.30;;;;;;9181455;19;20026;-61
2022/03/06 06:23:01;;;;;;;15.13;9.20;;;1.90;64.90;;;;;;9180772;19;20760;-60
2022/03/06 06:26:06;;;;;;;18.77;9.55;;;1.90;64.40;;;;;;9181363;19;20917;-59
2022/03/06 06:29:14;;;;;;;15.80;8.52;;;1.90;64.40;;;;;;9178563;19;20022;-60
2022/03/06 06:32:19;;;;;;;18.67;9.07;;;1.90;64.50;;;;;;9178917;19;20337;-58
2022/03/06 06:35:24;;;;;;;20.30;9.05;;;1.90;64.50;;;;;;9175559;19;20018;-60
2022/03/06 06:38:30;;;;;;;17.38;8.63;;;1.90;64.60;;;;;;9176984;19;20018;-58
2022/03/06 06:41:35;;;;;;;16.05;8.95;;;1.90;64.60;;;;;;9177657;19;20022;-59
2022/03/06 06:44:43;;;;;;;18.13;8.05;;;1.90;64.60;;;;;;9178321;19;20379;-60
2022/03/06 06:47:51;;;;;;;16.08;8.27;;;2.00;64.70;;;;;;9179293;19;20037;-62
2022/03/06 06:50:56;;;;;;;17.77;8.32;;;1.90;64.70;;;;;;9180345;19;20047;-59
2022/03/06 06:54:01;;;;;;;14.75;8.50;;;1.90;64.70;;;;;;9176464;19;20011;-59
2022/03/06 06:57:06;;;;;;;13.32;7.57;;;1.90;64.80;;;;;;9176357;19;20371;-59
2022/03/06 07:00:15;;;;;;;16.40;8.07;;;1.90;64.90;;;;;;9175070;19;20018;-59
2022/03/06 07:03:20;;;;;;;19.35;8.40;;;1.90;64.90;;;;;;9176634;19;20029;-59
2022/03/06 07:06:25;;;;;;;12.80;7.63;;;1.80;64.90;;;;;;9178947;19;20033;-59
2022/03/06 07:09:30;;;;;;;13.18;7.38;;;1.90;65.00;;;;;;9177128;19;20017;-62
2022/03/06 07:12:43;;;;;;;16.15;8.05;;;1.80;65.00;;;;;;9178342;19;20019;-61
2022/03/06 07:15:51;;;;;;;11.03;5.33;;;1.90;65.20;;;;;;9177270;19;20378;-60
2022/03/06 07:18:56;;;;;;;21.95;7.82;;;1.80;65.10;;;;;;9177540;19;20022;-60
2022/03/06 07:22:01;;;;;;;16.65;6.85;;;1.90;65.20;;;;;;9175821;19;20031;-61
2022/03/06 07:25:07;;;;;;;14.70;7.15;;;1.90;65.30;;;;;;9177318;19;20018;-59
2022/03/06 07:28:12;;;;;;;15.73;7.25;;;1.90;65.40;;;;;;9173969;19;20022;-61
2022/03/06 07:31:20;;;;;;;12.30;6.55;;;1.90;65.50;;;;;;9176970;19;20022;-61
2022/03/06 07:34:25;;;;;;;13.27;6.05;;;2.00;65.60;;;;;;9177718;19;20026;-60
2022/03/06 07:37:30;;;;;;;11.27;6.22;;;2.10;65.60;;;;;;9175229;19;20491;-59
2022/03/06 07:40:35;;;;;;;12.65;6.07;;;2.10;65.60;;;;;;9174909;19;20014;-61
2022/03/06 07:43:40;;;;;;;10.05;5.55;;;2.20;65.70;;;;;;9175410;19;20017;-59
2022/03/06 07:46:48;;;;;;;10.98;5.22;;;2.20;65.80;;;;;;9177082;19;20017;-63
2022/03/06 07:49:53;;;;;;;9.18;5.32;;;2.40;66.00;;;;;;9175555;19;20768;-59
2022/03/06 07:52:58;;;;;;;11.60;5.30;;;2.40;65.80;;;;;;9178777;19;20019;-60
2022/03/06 07:56:03;;;;;;;10.25;5.10;;;2.50;65.90;;;;;;9175277;19;20030;-60
2022/03/06 07:59:08;;;;;;;13.52;5.90;;;2.70;66.00;;;;;;9173099;19;20552;-59
2022/03/06 08:02:16;;;;;;;11.93;4.85;;;2.80;66.10;;;;;;9173450;19;20475;-61
2022/03/06 08:05:21;;;;;;;12.45;4.90;;;2.90;66.10;;;;;;9175481;19;20023;-60
2022/03/06 08:08:26;;;;;;;10.50;4.97;;;3.10;66.20;;;;;;9176237;19;20010;-60
2022/03/06 08:11:31;;;;;;;23.90;5.07;;;3.20;66.20;;;;;;9173740;19;20680;-60
2022/03/06 08:14:36;;;;;;;9.27;4.68;;;3.40;66.20;;;;;;9176584;19;20495;-60
2022/03/06 08:17:44;;;;;;;7.28;4.35;;;3.50;66.10;;;;;;9173166;19;20010;-59
2022/03/06 08:20:49;;;;;;;7.47;4.38;;;3.60;66.00;;;;;;9174460;19;20359;-61
2022/03/06 08:23:54;;;;;;;12.45;4.45;;;3.80;65.90;;;;;;9175396;19;20389;-62
2022/03/06 08:26:59;;;;;;;11.93;4.20;;;3.90;65.90;;;;;;9174885;19;20022;-61
2022/03/06 08:30:05;;;;;;;12.18;4.75;;;4.10;65.90;;;;;;9172296;19;20392;-61
2022/03/06 08:33:13;;;;;;;5.95;3.72;;;4.20;65.70;;;;;;9175769;19;20456;-61
2022/03/06 08:36:18;;;;;;;7.50;4.00;;;4.40;65.80;;;;;;9177060;19;20018;-60
2022/03/06 08:39:23;;;;;;;9.77;3.58;;;4.50;65.60;;;;;;9173713;19;20018;-60
2022/03/06 08:42:28;;;;;;;9.00;4.18;;;4.60;65.50;;;;;;9173228;19;20527;-61
2022/03/06 08:45:34;;;;;;;10.68;4.28;;;4.80;65.50;;;;;;9176148;19;20356;-60
2022/03/06 08:48:41;;;;;;;9.80;4.10;;;4.90;65.40;;;;;;9167500;19;20029;-59
2022/03/06 08:51:46;;;;;;;6.82;4.05;;;5.00;65.30;;;;;;9168673;19;20028;-61
2022/03/06 08:54:51;;;;;;;6.28;3.42;;;5.20;65.30;;;;;;9166878;19;20364;-60
2022/03/06 08:57:56;;;;;;;6.65;3.50;;;5.30;65.10;;;;;;9168683;19;20026;-60
2022/03/06 09:01:01;;;;;;;8.02;3.65;;;5.40;64.90;;;;;;9167489;19;20026;-60
2022/03/06 09:04:09;;;;;;;13.00;4.22;;;5.50;64.80;;;;;;9167446;19;20022;-60
2022/03/06 09:07:14;;;;;;;6.70;3.58;;;5.60;64.70;;;;;;9169711;19;20018;-59
2022/03/06 09:10:19;;;;;;;8.15;3.47;;;5.70;64.60;;;;;;9167749;19;20018;-59
2022/03/06 09:13:24;;;;;;;5.65;3.42;;;5.80;64.40;;;;;;9170070;19;20014;-61
2022/03/06 09:16:29;;;;;;;4.82;2.88;;;5.90;64.50;;;;;;9169483;19;20017;-60
2022/03/06 09:19:37;;;;;;;7.40;3.47;;;5.90;64.10;;;;;;9167245;19;20026;-60
2022/03/06 09:22:42;;;;;;;6.95;3.10;;;6.00;63.90;;;;;;9164796;19;20022;-64
2022/03/06 09:25:47;;;;;;;5.10;2.70;;;6.00;63.90;;;;;;9166251;19;20025;-61
2022/03/06 09:28:52;;;;;;;8.35;2.55;;;6.00;63.80;;;;;;9172501;19;20021;-60
2022/03/06 09:31:57;;;;;;;10.35;3.20;;;6.00;63.80;;;;;;9177389;19;20014;-61
2022/03/06 09:35:06;;;;;;;8.82;3.80;;;6.10;63.80;;;;;;9177069;19;20078;-60
2022/03/06 09:38:12;;;;;;;6.68;3.45;;;6.10;63.70;;;;;;9178112;19;20021;-61
2022/03/06 09:41:19;;;;;;;5.45;2.80;;;6.20;63.70;;;;;;9175421;19;20015;-59
2022/03/06 09:44:27;;;;;;;5.07;2.78;;;6.30;63.60;;;;;;9175690;19;20484;-62
2022/03/06 09:47:32;;;;;;;6.47;3.33;;;6.40;63.60;;;;;;9176193;19;20019;-62
2022/03/06 09:50:40;;;;;;;8.80;3.70;;;6.50;63.50;;;;;;9171394;19;20029;-59
2022/03/06 09:53:45;;;;;;;7.35;2.90;;;6.60;63.40;;;;;;9175383;19;20364;-61
2022/03/06 09:56:50;;;;;;;7.53;2.70;;;6.70;63.20;;;;;;9175075;19;20038;-61
2022/03/06 09:59:55;;;;;;;6.40;2.65;;;6.70;63.10;;;;;;9176500;19;20010;-60
2022/03/06 10:03:02;;;;;;;8.25;2.78;;;6.90;63.20;;;;;;9168074;19;20029;-61
2022/03/06 10:06:12;;;;;;;5.97;2.72;;;7.00;63.20;;;;;;9167332;19;20052;-61
2022/03/06 10:09:20;;;;;;;10.23;2.95;;;7.10;63.10;;;;;;9165525;19;20367;-63
2022/03/06 10:12:27;;;;;;;5.28;3.03;;;7.30;63.00;;;;;;9164577;19;20030;-62
2022/03/06 10:15:33;;;;;;;7.35;2.75;;;7.50;62.90;;;;;;9167180;19;20447;-60
2022/03/06 10:18:40;;;;;;;8.43;3.00;;;7.60;62.70;;;;;;9174707;19;20502;-61
2022/03/06 10:21:48;;;;;;;5.35;2.72;;;7.70;62.60;;;;;;9170706;19;20057;-59
2022/03/06 10:24:55;;;;;;;6.30;2.80;;;7.90;62.50;;;;;;9175488;19;20516;-61
2022/03/06 10:28:00;;;;;;;3.95;2.63;;;8.00;62.40;;;;;;9165466;19;20383;-62
2022/03/06 10:31:07;;;;;;;8.68;2.90;;;8.10;62.30;;;;;;9171105;19;20010;-63
2022/03/06 10:34:14;;;;;;;3.47;2.22;;;8.30;62.20;;;;;;9171478;19;20018;-59
2022/03/06 10:37:22;;;;;;;6.80;2.88;;;8.40;62.10;;;;;;9173823;19;20048;-61
2022/03/06 10:40:37;;;;;;;5.90;2.70;;;8.50;62.00;;;;;;9176182;19;20472;-61
2022/03/06 10:43:43;;;;;;;6.70;3.15;;;8.70;61.80;;;;;;9170674;19;20075;-61
2022/03/06 10:47:01;;;;;;;9.25;2.85;;;8.80;61.80;;;;;;9169898;19;20029;-61
2022/03/06 10:50:08;;;;;;;8.80;3.50;;;9.00;61.50;;;;;;9173130;19;20019;-60
2022/03/06 10:53:23;;;;;;;6.25;2.80;;;9.10;61.60;;;;;;9174694;19;20618;-62
2022/03/06 10:56:30;;;;;;;5.60;3.30;;;9.30;61.30;;;;;;9169595;19;20018;-65
2022/03/06 10:59:36;;;;;;;7.03;3.03;;;9.40;61.30;;;;;;9169504;19;20019;-65
2022/03/06 11:02:41;;;;;;;5.88;3.05;;;9.50;61.10;;;;;;9171549;19;20018;-61
2022/03/06 11:05:49;;;;;;;6.20;3.33;;;9.70;61.00;;;;;;9169565;19;20473;-62
2022/03/06 11:08:57;;;;;;;6.78;3.50;;;9.80;60.70;;;;;;9167561;19;20010;-61
2022/03/06 11:12:02;;;;;;;5.57;3.00;;;9.90;60.40;;;;;;9168692;19;20021;-60
2022/03/06 11:15:09;;;;;;;7.07;3.20;;;9.90;60.30;;;;;;9166811;19;20367;-62
2022/03/06 11:18:14;;;;;;;6.53;3.10;;;10.00;60.20;;;;;;9168944;19;20018;-62
2022/03/06 11:21:20;;;;;;;6.78;3.63;;;10.10;60.30;;;;;;9174882;19;20578;-60
2022/03/06 11:24:29;;;;;;;5.97;3.33;;;10.20;60.10;;;;;;9176804;19;20020;-60
2022/03/06 11:27:45;;;;;;;7.00;3.92;;;10.20;59.80;;;;;;9174723;19;20067;-60
2022/03/06 11:30:50;;;;;;;8.20;3.63;;;10.30;59.70;;;;;;9178937;19;20036;-59
2022/03/06 11:34:02;;;;;;;6.53;3.80;;;10.40;59.70;;;;;;9180165;19;20010;-61
2022/03/06 11:37:09;;;;;;;5.70;3.85;;;10.40;59.50;;;;;;9178211;19;20022;-60
2022/03/06 11:40:44;;;;;;;7.28;4.10;;;10.50;59.40;;;;;;9179309;19;20022;-59
2022/03/06 11:43:50;;;;;;;11.00;4.38;;;10.50;59.00;;;;;;9178172;19;20502;-59
2022/03/06 11:46:57;;;;;;;7.90;4.10;;;10.50;59.10;;;;;;9177840;19;20015;-62
2022/03/06 11:50:02;;;;;;;7.80;3.95;;;10.60;58.90;;;;;;9175579;19;20014;-61
2022/03/06 11:53:22;;;;;;;6.88;4.10;;;10.60;58.90;;;;;;9179942;19;20074;-60
2022/03/06 11:56:46;;;;;;;7.75;5.18;;;10.70;58.50;;;;;;9180149;19;20033;-60
2022/03/06 11:59:51;;;;;;;7.30;3.67;;;10.70;58.30;;;;;;9181403;19;20088;-59
2022/03/06 12:02:59;;;;;;;6.85;3.85;;;10.80;58.60;;;;;;9176422;19;20022;-61
2022/03/06 12:06:16;;;;;;;10.05;3.67;;;10.80;58.40;;;;;;9176225;19;20011;-60
2022/03/06 12:09:23;;;;;;;7.18;4.05;;;10.90;58.20;;;;;;9176998;19;20015;-60
2022/03/06 12:12:31;;;;;;;6.25;4.00;;;10.90;58.30;;;;;;9177998;19;20015;-61
2022/03/06 12:15:36;;;;;;;9.43;4.18;;;10.90;58.00;;;;;;9176105;19;20360;-60
2022/03/06 12:18:41;;;;;;;6.28;4.03;;;11.00;58.00;;;;;;9178662;19;20041;-62
2022/03/06 12:21:46;;;;;;;6.07;4.15;;;11.00;57.90;;;;;;9178900;19;20029;-60
2022/03/06 12:25:08;;;;;;;6.43;4.43;;;11.00;57.80;;;;;;9178697;19;20476;-61
2022/03/06 12:28:24;;;;;;;8.27;4.53;;;11.00;57.70;;;;;;9171985;19;20499;-60
2022/03/06 12:31:37;;;;;;;6.57;4.13;;;11.10;57.40;;;;;;9175843;19;20383;-61
2022/03/06 12:34:43;;;;;;;7.82;4.15;;;11.10;57.40;;;;;;9174778;19;20022;-59
2022/03/06 12:37:53;;;;;;;6.93;4.20;;;11.00;57.40;;;;;;9177009;19;20481;-61
2022/03/06 12:40:58;;;;;;;8.48;4.03;;;11.00;57.00;;;;;;9177582;19;20014;-60
2022/03/06 12:44:10;;;;;;;8.38;4.45;;;11.00;57.10;;;;;;9176863;19;20015;-61
2022/03/06 12:47:15;;;;;;;8.05;3.85;;;10.90;56.90;;;;;;9176831;19;20510;-61
2022/03/06 12:50:22;;;;;;;8.73;4.80;;;10.80;56.90;;;;;;9177385;19;20023;-61
2022/03/06 12:53:27;;;;;;;8.65;4.68;;;10.70;56.90;;;;;;9175204;19;20025;-60
2022/03/06 12:56:33;;;;;;;9.25;4.70;;;10.70;56.90;;;;;;9176115;19;20019;-60
2022/03/06 12:59:42;;;;;;;8.27;4.00;;;10.60;56.80;;;;;;9176269;19;20355;-59
2022/03/06 13:02:49;;;;;;;6.55;4.10;;;10.50;56.60;;;;;;9183811;19;20030;-61
2022/03/06 13:05:54;;;;;;;7.82;4.43;;;10.40;56.60;;;;;;9187161;19;20443;-61
2022/03/06 13:09:01;;;;;;;7.20;4.35;;;10.40;56.70;;;;;;9184207;19;20107;-61
2022/03/06 13:12:08;;;;;;;7.47;4.07;;;10.30;56.70;;;;;;9187564;19;20014;-63
2022/03/06 13:15:23;;;;;;;8.10;4.00;;;10.20;56.50;;;;;;9181604;19;20459;-59
2022/03/06 13:18:35;;;;;;;9.73;3.90;;;10.10;56.10;;;;;;9181651;19;20022;-60
2022/03/06 13:21:41;;;;;;;5.90;3.80;;;9.90;56.20;;;;;;9182450;19;20031;-60
2022/03/06 13:24:47;;;;;;;7.65;3.50;;;9.80;56.50;;;;;;9181602;19;20014;-63
2022/03/06 13:27:53;;;;;;;5.88;3.83;;;9.60;56.40;;;;;;9178902;19;20034;-60
2022/03/06 13:31:04;;;;;;;6.20;3.53;;;9.50;56.30;;;;;;9184218;19;20026;-60
2022/03/06 13:34:10;;;;;;;8.98;3.90;;;9.40;56.20;;;;;;9184535;19;20010;-60
2022/03/06 13:37:17;;;;;;;5.38;3.15;;;9.20;56.30;;;;;;9181301;19;20022;-61
2022/03/06 13:40:27;;;;;;;4.30;2.50;;;9.10;56.40;;;;;;9181919;19;20363;-63
2022/03/06 13:43:38;;;;;;;5.95;2.80;;;8.90;56.30;;;;;;9182316;19;20018;-60
2022/03/06 13:46:47;;;;;;;3.97;2.20;;;8.80;56.20;;;;;;9181785;19;20026;-61
2022/03/06 13:50:01;;;;;;;5.55;2.10;;;8.60;56.20;;;;;;9182733;19;20366;-63
2022/03/06 13:53:06;;;;;;;;;;;8.60;56.20;;;;;;9184439;19;20494;-61
2022/03/06 13:56:11;;;;;;;4.63;2.53;;;8.40;56.50;;;;;;9185329;19;19926;-61
2022/03/06 13:59:29;;;;;;;4.80;2.53;;;8.30;56.40;;;;;;9184046;19;20015;-62
2022/03/06 14:02:36;;;;;;;5.03;2.38;;;8.30;56.20;;;;;;9181733;19;20390;-60
2022/03/06 14:05:44;;;;;;;5.53;2.50;;;8.20;56.40;;;;;;9179405;19;20015;-60
2022/03/06 14:08:49;;;;;;;5.63;3.28;;;8.10;56.50;;;;;;9179680;19;20015;-61
2022/03/06 14:12:16;;;;;;;3.75;2.35;;;8.00;56.40;;;;;;9180654;19;20026;-61
2022/03/06 14:15:25;;;;;;;5.63;2.40;;;8.00;56.40;;;;;;9181273;19;20015;-61
2022/03/06 14:18:41;;;;;;;4.45;2.58;;;7.90;56.40;;;;;;9181597;19;20019;-61
2022/03/06 14:21:47;;;;;;;6.72;2.60;;;7.90;56.30;;;;;;9182794;19;20515;-60
2022/03/06 14:24:52;;;;;;;4.05;2.40;;;7.80;56.30;;;;;;9181044;19;20014;-63
2022/03/06 14:27:58;;;;;;;3.15;2.50;;;7.80;56.40;;;;;;9174921;19;20471;-60
2022/03/06 14:31:04;;;;;;;5.63;2.78;;;7.70;56.40;;;;;;9180823;19;20359;-59
2022/03/06 14:34:12;;;;;;;7.30;3.10;;;7.70;56.40;;;;;;9179990;19;20030;-60
2022/03/06 14:37:18;;;;;;;4.25;2.60;;;7.70;56.40;;;;;;9180277;19;20025;-61
2022/03/06 14:40:23;;;;;;;3.75;2.50;;;7.70;56.30;;;;;;9182775;19;20018;-62
2022/03/06 14:43:28;;;;;;;5.05;2.60;;;7.60;56.30;;;;;;9181588;19;20676;-62
2022/03/06 14:46:33;;;;;;;4.53;2.58;;;7.60;56.30;;;;;;9184026;19;20022;-61
2022/03/06 14:49:41;;;;;;;5.55;2.47;;;7.60;56.30;;;;;;9180022;19;20018;-60
2022/03/06 14:52:46;;;;;;;7.30;3.10;;;7.60;56.30;;;;;;9179278;19;20523;-60
2022/03/06 14:55:51;;;;;;;4.40;2.17;;;7.60;56.30;;;;;;9179467;19;20014;-61
2022/03/06 14:59:10;;;;;;;6.53;2.22;;;7.60;56.30;;;;;;9178207;19;20018;-61
2022/03/06 15:02:15;;;;;;;5.05;2.33;;;7.60;56.40;;;;;;9181641;19;20046;-61
2022/03/06 15:05:23;;;;;;;7.68;3.15;;;7.50;56.30;;;;;;9180824;19;20509;-61
2022/03/06 15:08:28;;;;;;;5.68;2.38;;;7.50;56.40;;;;;;9179654;19;20728;-60
2022/03/06 15:11:33;;;;;;;4.88;2.50;;;7.50;56.30;;;;;;9178516;19;20026;-60
2022/03/06 15:14:38;;;;;;;7.07;2.63;;;7.50;56.30;;;;;;9177460;19;20030;-62
2022/03/06 15:17:43;;;;;;;4.57;2.75;;;7.50;56.30;;;;;;9179093;19;20453;-60
2022/03/06 15:20:51;;;;;;;5.18;2.50;;;7.50;56.30;;;;;;9179863;19;20014;-60
2022/03/06 15:23:56;;;;;;;6.65;2.65;;;7.50;56.30;;;;;;9180440;19;20011;-60
2022/03/06 15:27:01;;;;;;;6.25;2.60;;;7.50;56.30;;;;;;9179526;19;20353;-62
2022/03/06 15:30:07;;;;;;;2.92;2.30;;;7.50;56.40;;;;;;9181535;19;20018;-60
2022/03/06 15:33:13;;;;;;;4.20;2.08;;;7.50;56.40;;;;;;9178681;19;20010;-60
2022/03/06 15:36:21;;;;;;;4.85;2.30;;;7.50;56.40;;;;;;9178269;19;20030;-61
2022/03/06 15:39:26;;;;;;;7.70;2.42;;;7.50;56.40;;;;;;9178642;19;20079;-60
2022/03/06 15:42:36;;;;;;;6.32;2.97;;;7.50;56.40;;;;;;9179189;19;20018;-60
2022/03/06 15:45:41;;;;;;;4.55;2.30;;;7.50;56.40;;;;;;9177960;19;20014;-63
2022/03/06 15:48:46;;;;;;;6.63;2.60;;;7.50;56.50;;;;;;9179369;19;20030;-62
2022/03/06 15:51:54;;;;;;;4.35;2.75;;;7.40;56.40;;;;;;9178837;19;20440;-58
2022/03/06 15:54:59;;;;;;;8.88;2.72;;;7.40;56.40;;;;;;9176858;19;20022;-59
2022/03/06 15:58:04;;;;;;;6.25;2.58;;;7.40;56.50;;;;;;9178403;19;20019;-59
2022/03/06 16:01:09;;;;;;;6.32;2.88;;;7.40;56.50;;;;;;9178518;19;20018;-59
2022/03/06 16:04:15;;;;;;;5.55;2.20;;;7.30;56.40;;;;;;9178158;19;20059;-60
2022/03/06 16:07:23;;;;;;;5.45;2.45;;;7.30;56.40;;;;;;9178601;19;20022;-60
2022/03/06 16:10:31;;;;;;;6.50;2.50;;;7.20;56.40;;;;;;9178203;19;20056;-60
2022/03/06 16:13:36;;;;;;;5.65;2.25;;;7.20;56.50;;;;;;9178822;19;20030;-58
2022/03/06 16:16:42;;;;;;;7.57;2.75;;;7.20;56.50;;;;;;9176783;19;20015;-60